createdAt,value
2019-03-13T00:00:44.804Z,-0.50
2019-03-13T00:03:13.328Z,-0.50
2019-03-13T00:05:41.691Z,-0.40
2019-03-13T00:08:10.076Z,-0.40
2019-03-13T00:10:38.672Z,-0.40
2019-03-13T00:13:07.134Z,-0.30
2019-03-13T00:15:35.625Z,-0.30
2019-03-13T00:18:04.514Z,-0.30
2019-03-13T00:20:33.001Z,-0.30
2019-03-13T00:23:01.356Z,-0.30
2019-03-13T00:25:29.973Z,-0.20
2019-03-13T00:27:58.385Z,-0.20
2019-03-13T00:30:27.004Z,-0.20
2019-03-13T00:32:55.360Z,-0.20
2019-03-13T00:35:24.822Z,-0.10
2019-03-13T00:37:53.207Z,-0.10
2019-03-13T00:40:21.551Z,0.00
2019-03-13T00:42:49.942Z,0.00
2019-03-13T00:45:18.290Z,0.00
2019-03-13T00:47:46.591Z,0.00
2019-03-13T00:50:23.676Z,0.00
2019-03-13T00:52:51.998Z,0.00
2019-03-13T00:55:20.376Z,0.00
2019-03-13T00:57:48.809Z,0.10
2019-03-13T01:00:21.679Z,0.10
2019-03-13T01:02:50.361Z,0.10
2019-03-13T01:05:24.062Z,0.10
2019-03-13T01:07:52.393Z,0.10
2019-03-13T01:10:21.025Z,0.00
2019-03-13T01:12:49.400Z,0.00
2019-03-13T01:15:17.787Z,0.20
2019-03-13T01:17:46.156Z,0.20
2019-03-13T01:20:14.706Z,0.20
2019-03-13T01:22:43.015Z,0.20
2019-03-13T01:25:11.421Z,0.20
2019-03-13T01:27:39.846Z,0.30
2019-03-13T01:30:08.331Z,0.20
2019-03-13T01:32:42.899Z,0.20
2019-03-13T01:35:16.983Z,0.20
2019-03-13T01:37:45.488Z,0.20
2019-03-13T01:40:13.824Z,0.20
2019-03-13T01:42:42.191Z,0.20
2019-03-13T01:45:10.596Z,0.20
2019-03-13T01:47:39.237Z,0.20
2019-03-13T01:50:07.963Z,0.20
2019-03-13T01:52:36.341Z,0.20
2019-03-13T01:55:04.891Z,0.20
2019-03-13T01:57:33.234Z,0.20
2019-03-13T02:00:01.545Z,0.20
2019-03-13T02:02:29.887Z,0.20
2019-03-13T02:04:58.383Z,0.20
2019-03-13T02:07:27.227Z,0.30
2019-03-13T02:09:55.540Z,0.30
2019-03-13T02:12:24.014Z,0.30
2019-03-13T02:14:52.350Z,0.30
2019-03-13T02:17:20.654Z,0.30
2019-03-13T02:19:49.966Z,0.30
2019-03-13T02:22:17.378Z,0.30
2019-03-13T02:24:45.870Z,0.40
2019-03-13T02:27:14.700Z,0.40
2019-03-13T02:29:43.213Z,0.40
2019-03-13T02:32:11.619Z,0.40
2019-03-13T02:34:39.984Z,0.40
2019-03-13T02:37:08.373Z,0.50
2019-03-13T02:39:36.721Z,0.50
2019-03-13T02:42:05.082Z,0.50
2019-03-13T02:44:33.507Z,0.50
2019-03-13T02:47:01.895Z,0.50
2019-03-13T02:49:30.328Z,0.60
2019-03-13T02:51:58.565Z,0.60
2019-03-13T02:54:26.897Z,0.60
2019-03-13T02:56:55.386Z,0.60
2019-03-13T02:59:23.762Z,0.60
2019-03-13T03:02:05.347Z,0.60
2019-03-13T03:04:33.666Z,0.60
2019-03-13T03:07:02.372Z,0.70
2019-03-13T03:09:31.598Z,0.70
2019-03-13T03:12:00.023Z,0.70
2019-03-13T03:14:28.365Z,0.70
2019-03-13T03:16:56.687Z,0.80
2019-03-13T03:19:25.211Z,0.80
2019-03-13T03:21:53.616Z,0.80
2019-03-13T03:24:21.984Z,0.80
2019-03-13T03:26:50.362Z,0.80
2019-03-13T03:29:18.690Z,0.80
2019-03-13T03:31:47.103Z,0.80
2019-03-13T03:34:15.451Z,0.90
2019-03-13T03:36:43.849Z,0.90
2019-03-13T03:39:12.230Z,1.00
2019-03-13T03:41:40.543Z,1.00
2019-03-13T03:44:09.027Z,1.00
2019-03-13T03:46:37.389Z,1.00
2019-03-13T03:49:05.815Z,1.00
2019-03-13T03:51:34.208Z,1.00
2019-03-13T03:54:02.533Z,1.00
2019-03-13T03:56:31.186Z,1.10
2019-03-13T03:58:59.595Z,1.10
2019-03-13T04:01:27.963Z,1.10
2019-03-13T04:03:56.283Z,1.10
2019-03-13T04:06:24.966Z,1.20
2019-03-13T04:08:53.342Z,1.20
2019-03-13T04:11:22.086Z,1.20
2019-03-13T04:13:50.510Z,1.20
2019-03-13T04:16:18.933Z,1.20
2019-03-13T04:18:47.322Z,1.30
2019-03-13T04:21:15.621Z,1.30
2019-03-13T04:23:43.905Z,1.30
2019-03-13T04:26:13.078Z,1.30
2019-03-13T04:28:40.941Z,1.30
2019-03-13T04:31:09.554Z,1.30
2019-03-13T04:33:37.876Z,1.30
2019-03-13T04:36:06.212Z,1.30
2019-03-13T04:38:34.613Z,1.30
2019-03-13T04:41:02.944Z,1.30
2019-03-13T04:43:31.241Z,1.30
2019-03-13T04:45:59.569Z,1.30
2019-03-13T04:48:27.928Z,1.40
2019-03-13T04:50:56.664Z,1.30
2019-03-13T04:53:25.242Z,1.40
2019-03-13T04:55:53.576Z,1.40
2019-03-13T04:58:22.113Z,1.40
2019-03-13T05:00:50.467Z,1.40
2019-03-13T05:03:18.913Z,1.40
2019-03-13T05:05:49.157Z,1.40
2019-03-13T05:09:27.547Z,1.40
2019-03-13T05:11:56.257Z,1.40
2019-03-13T05:14:24.595Z,1.50
2019-03-13T05:16:52.911Z,1.50
2019-03-13T05:19:21.256Z,1.50
2019-03-13T05:21:49.653Z,1.50
2019-03-13T05:24:18.178Z,1.50
2019-03-13T05:26:46.508Z,1.50
2019-03-13T05:29:14.867Z,1.50
2019-03-13T05:31:43.201Z,1.50
2019-03-13T05:34:11.512Z,1.50
2019-03-13T05:36:39.866Z,1.50
2019-03-13T05:39:08.352Z,1.50
2019-03-13T05:41:36.731Z,1.50
2019-03-13T05:44:05.082Z,1.50
2019-03-13T05:46:33.417Z,1.50
2019-03-13T05:49:01.844Z,1.50
2019-03-13T05:51:30.252Z,1.50
2019-03-13T05:53:58.825Z,1.50
2019-03-13T05:56:27.233Z,1.50
2019-03-13T05:58:55.602Z,1.50
2019-03-13T06:01:23.957Z,1.50
2019-03-13T06:03:52.475Z,1.50
2019-03-13T06:06:21.028Z,1.50
2019-03-13T06:08:49.389Z,1.50
2019-03-13T06:11:17.864Z,1.60
2019-03-13T06:13:47.485Z,1.60
2019-03-13T06:16:15.436Z,1.60
2019-03-13T06:18:43.886Z,1.50
2019-03-13T06:21:12.500Z,1.60
2019-03-13T06:23:40.864Z,1.60
2019-03-13T06:26:09.199Z,1.70
2019-03-13T06:28:37.547Z,1.70
2019-03-13T06:31:06.196Z,1.70
2019-03-13T06:33:34.618Z,1.70
2019-03-13T06:36:03.116Z,1.70
2019-03-13T06:38:32.550Z,1.70
2019-03-13T06:41:01.023Z,1.70
2019-03-13T06:43:29.356Z,1.70
2019-03-13T06:45:57.659Z,1.70
2019-03-13T06:48:25.992Z,1.70
2019-03-13T06:50:54.480Z,1.70
2019-03-13T06:53:22.867Z,1.80
2019-03-13T06:55:51.673Z,1.80
2019-03-13T06:58:24.227Z,1.80
2019-03-13T07:01:03.667Z,1.80
2019-03-13T07:03:38.083Z,1.80
2019-03-13T07:08:14.585Z,1.80
2019-03-13T07:10:51.517Z,1.80
2019-03-13T07:13:24.879Z,1.80
2019-03-13T07:15:58.415Z,1.80
2019-03-13T07:18:32.007Z,1.80
2019-03-13T07:21:11.663Z,1.80
2019-03-13T07:23:47.998Z,1.90
2019-03-13T07:26:20.834Z,1.90
2019-03-13T07:28:54.413Z,1.90
2019-03-13T07:33:31.526Z,1.90
2019-03-13T07:37:07.301Z,1.90
2019-03-13T07:39:48.858Z,1.90
2019-03-13T07:42:21.522Z,1.80
2019-03-13T07:44:54.114Z,1.80
2019-03-13T07:49:29.271Z,1.80
2019-03-13T07:52:19.866Z,1.80
2019-03-13T07:54:56.471Z,1.80
2019-03-13T07:57:29.854Z,1.80
2019-03-13T08:00:19.422Z,1.80
2019-03-13T08:03:07.827Z,1.80
2019-03-13T08:07:47.959Z,1.80
2019-03-13T08:10:28.429Z,1.80
2019-03-13T08:13:01.182Z,1.80
2019-03-13T08:15:37.684Z,1.80
2019-03-13T08:18:18.088Z,1.80
2019-03-13T08:20:55.594Z,1.80
2019-03-13T08:23:28.328Z,1.80
2019-03-13T08:26:03.903Z,1.80
2019-03-13T08:28:39.462Z,1.80
2019-03-13T08:31:15.970Z,1.80
2019-03-13T08:34:12.086Z,1.90
2019-03-13T08:38:47.115Z,1.90
2019-03-13T08:41:23.424Z,1.90
2019-03-13T08:43:59.031Z,1.90
2019-03-13T08:48:34.184Z,1.90
2019-03-13T08:53:09.372Z,1.90
2019-03-13T08:55:50.729Z,2.00
2019-03-13T08:58:25.191Z,2.00
2019-03-13T09:03:00.359Z,2.00
2019-03-13T09:05:37.894Z,2.10
2019-03-13T09:08:10.420Z,2.10
2019-03-13T09:10:43.937Z,2.20
2019-03-13T09:15:24.084Z,2.20
2019-03-13T09:17:57.869Z,2.20
2019-03-13T09:20:33.313Z,2.20
2019-03-13T09:23:06.727Z,2.20
2019-03-13T09:25:40.504Z,2.20
2019-03-13T09:28:28.105Z,2.20
2019-03-13T09:31:04.676Z,2.20
2019-03-13T09:33:38.126Z,2.20
2019-03-13T09:36:20.740Z,2.20
2019-03-13T09:38:56.215Z,2.20
2019-03-13T09:41:29.648Z,2.20
2019-03-13T09:44:04.145Z,2.20
2019-03-13T09:46:36.753Z,2.20
2019-03-13T09:49:10.413Z,2.20
2019-03-13T09:51:43.082Z,2.20
2019-03-13T09:54:18.600Z,2.20
2019-03-13T09:56:51.140Z,2.20
2019-03-13T09:59:26.774Z,2.20
2019-03-13T10:02:08.170Z,2.20
2019-03-13T10:05:13.697Z,2.20
2019-03-13T10:07:48.223Z,2.20
2019-03-13T10:10:21.726Z,2.30
2019-03-13T10:12:56.410Z,2.20
2019-03-13T10:15:33.139Z,2.20
2019-03-13T10:20:09.332Z,2.10
2019-03-13T10:22:42.946Z,2.20
2019-03-13T10:25:26.366Z,2.10
2019-03-13T10:28:01.799Z,2.10
2019-03-13T10:30:36.347Z,2.20
2019-03-13T10:33:10.946Z,2.20
2019-03-13T10:36:00.540Z,2.10
2019-03-13T10:38:34.304Z,2.10
2019-03-13T10:41:11.058Z,2.20
2019-03-13T10:43:45.628Z,2.20
2019-03-13T10:46:18.204Z,2.20
2019-03-13T10:49:25.016Z,2.20
2019-03-13T10:52:03.461Z,2.20
2019-03-13T10:54:37.154Z,2.20
2019-03-13T10:57:13.697Z,2.30
2019-03-13T10:59:50.439Z,2.20
2019-03-13T11:04:31.407Z,2.20
2019-03-13T11:07:05.049Z,2.20
2019-03-13T11:09:39.571Z,2.20
2019-03-13T11:12:27.719Z,2.20
2019-03-13T11:17:03.161Z,2.30
2019-03-13T11:21:38.426Z,2.30
2019-03-13T11:24:17.063Z,2.30
2019-03-13T11:28:53.182Z,2.30
2019-03-13T11:31:26.102Z,2.30
2019-03-13T11:34:02.604Z,2.30
2019-03-13T11:36:35.302Z,2.30
2019-03-13T11:39:08.780Z,2.30
2019-03-13T11:41:45.263Z,2.30
2019-03-13T11:46:20.472Z,2.30
2019-03-13T11:51:00.978Z,2.30
2019-03-13T11:53:36.386Z,2.30
2019-03-13T11:56:28.030Z,2.30
2019-03-13T11:59:01.741Z,2.40
2019-03-13T12:01:45.286Z,2.40
2019-03-13T12:04:08.436Z,2.40
2019-03-13T12:06:42.031Z,2.50
2019-03-13T12:09:15.558Z,2.50
2019-03-13T12:11:49.019Z,2.50
2019-03-13T12:14:24.410Z,2.50
2019-03-13T12:17:00.835Z,2.50
2019-03-13T12:21:42.260Z,2.60
2019-03-13T12:26:17.456Z,2.60
2019-03-13T12:28:50.142Z,2.60
2019-03-13T12:31:22.750Z,2.70
2019-03-13T12:33:56.307Z,2.60
2019-03-13T12:36:31.790Z,2.60
2019-03-13T12:39:11.196Z,2.60
2019-03-13T12:43:46.076Z,2.60
2019-03-13T12:46:19.621Z,2.60
2019-03-13T12:49:23.308Z,2.70
2019-03-13T12:52:02.786Z,2.70
2019-03-13T12:54:37.306Z,2.80
2019-03-13T12:57:09.882Z,2.80
2019-03-13T12:59:43.279Z,2.80
2019-03-13T13:02:20.817Z,2.90
2019-03-13T13:05:09.264Z,2.90
2019-03-13T13:07:46.807Z,2.90
2019-03-13T13:11:18.719Z,2.90
2019-03-13T13:13:54.096Z,2.90
2019-03-13T13:17:30.952Z,3.00
2019-03-13T13:19:59.293Z,3.00
2019-03-13T13:22:27.702Z,3.00
2019-03-13T13:24:56.028Z,3.10
2019-03-13T13:27:24.510Z,3.20
2019-03-13T13:29:53.216Z,3.40
2019-03-13T13:32:21.676Z,3.60
2019-03-13T13:34:50.110Z,3.70
2019-03-13T13:37:18.429Z,3.80
2019-03-13T13:39:46.773Z,3.80
2019-03-13T13:42:15.135Z,3.90
2019-03-13T13:44:43.526Z,4.00
2019-03-13T13:47:12.017Z,4.00
2019-03-13T13:49:40.378Z,4.10
2019-03-13T13:52:08.791Z,4.20
2019-03-13T13:54:37.135Z,4.20
2019-03-13T13:57:05.724Z,4.10
2019-03-13T13:59:34.118Z,4.10
2019-03-13T14:02:02.509Z,4.10
2019-03-13T14:04:31.417Z,4.10
2019-03-13T14:06:59.740Z,4.20
2019-03-13T14:09:28.287Z,4.30
2019-03-13T14:11:56.656Z,4.40
2019-03-13T14:14:25.017Z,4.40
2019-03-13T14:16:53.439Z,4.50
2019-03-13T14:19:21.835Z,4.60
2019-03-13T14:21:50.475Z,4.60
2019-03-13T14:24:20.376Z,4.60
2019-03-13T14:26:48.807Z,4.60
2019-03-13T14:29:17.795Z,4.70
2019-03-13T14:31:46.846Z,4.80
2019-03-13T14:34:15.366Z,4.80
2019-03-13T14:36:43.743Z,4.80
2019-03-13T14:39:12.176Z,4.70
2019-03-13T14:41:40.604Z,4.60
2019-03-13T14:44:08.966Z,4.70
2019-03-13T14:46:37.403Z,4.70
2019-03-13T14:49:05.901Z,4.70
2019-03-13T14:51:34.244Z,4.70
2019-03-13T14:54:02.607Z,4.70
2019-03-13T14:56:31.344Z,4.60
2019-03-13T14:58:59.668Z,4.50
2019-03-13T15:01:28.060Z,4.50
2019-03-13T15:03:56.414Z,4.40
2019-03-13T15:06:24.876Z,4.40
2019-03-13T15:08:53.431Z,4.50
2019-03-13T15:11:21.920Z,4.70
2019-03-13T15:13:50.271Z,5.70
2019-03-13T15:16:18.699Z,7.80
2019-03-13T15:18:47.276Z,9.70
2019-03-13T15:21:15.800Z,11.20
2019-03-13T15:23:44.157Z,11.00
2019-03-13T15:26:12.571Z,12.00
2019-03-13T15:28:41.023Z,12.30
2019-03-13T15:31:09.502Z,10.10
2019-03-13T15:33:37.911Z,8.10
2019-03-13T15:36:06.270Z,7.10
2019-03-13T15:38:34.753Z,8.10
2019-03-13T15:41:03.494Z,8.20
2019-03-13T15:43:31.868Z,7.30
2019-03-13T15:46:00.377Z,6.10
2019-03-13T15:48:28.740Z,5.40
2019-03-13T15:50:57.038Z,4.80
2019-03-13T15:53:25.610Z,4.50
2019-03-13T15:55:54.083Z,4.30
2019-03-13T15:58:22.470Z,4.20
2019-03-13T16:00:50.991Z,4.20
2019-03-13T16:03:19.403Z,4.10
2019-03-13T16:05:47.776Z,4.20
2019-03-13T16:08:16.157Z,4.10
2019-03-13T16:10:44.523Z,4.10
2019-03-13T16:13:12.927Z,4.10
2019-03-13T16:15:41.311Z,4.10
2019-03-13T16:18:09.642Z,4.00
2019-03-13T16:20:38.016Z,3.90
2019-03-13T16:23:06.425Z,3.90
2019-03-13T16:25:34.882Z,3.80
2019-03-13T16:28:03.550Z,3.80
2019-03-13T16:30:34.240Z,3.80
2019-03-13T16:33:02.531Z,3.80
2019-03-13T16:35:30.925Z,3.80
2019-03-13T16:37:59.310Z,3.80
2019-03-13T16:40:27.658Z,3.80
2019-03-13T16:42:56.051Z,3.70
2019-03-13T16:45:24.456Z,3.70
2019-03-13T16:47:52.870Z,3.70
2019-03-13T16:50:21.312Z,3.60
2019-03-13T16:52:49.758Z,3.60
2019-03-13T16:55:18.623Z,3.50
2019-03-13T16:57:47.445Z,3.40
2019-03-13T17:00:19.048Z,3.40
2019-03-13T17:02:47.452Z,3.50
2019-03-13T17:05:16.006Z,3.40
2019-03-13T17:07:44.474Z,3.40
2019-03-13T17:10:13.768Z,3.50
2019-03-13T17:12:42.332Z,3.50
2019-03-13T17:15:13.137Z,3.50
2019-03-13T17:17:41.459Z,3.40
2019-03-13T17:20:12.971Z,3.40
2019-03-13T17:22:43.309Z,3.40
2019-03-13T17:25:10.823Z,3.40
2019-03-13T17:27:39.175Z,3.40
2019-03-13T17:30:10.219Z,3.30
2019-03-13T17:32:38.541Z,3.20
2019-03-13T17:35:07.285Z,3.10
2019-03-13T17:37:35.649Z,3.00
2019-03-13T17:40:04.272Z,3.10
2019-03-13T17:42:32.553Z,3.10
2019-03-13T17:45:00.933Z,3.10
2019-03-13T17:47:29.476Z,3.10
2019-03-13T17:49:57.881Z,3.10
2019-03-13T17:52:26.209Z,3.10
2019-03-13T17:54:54.572Z,3.20
2019-03-13T17:57:22.884Z,3.10
2019-03-13T17:59:51.478Z,3.10
2019-03-13T18:02:19.917Z,3.00
2019-03-13T18:04:48.337Z,3.00
2019-03-13T18:07:16.735Z,3.00
2019-03-13T18:09:45.027Z,3.00
2019-03-13T18:12:13.355Z,2.80
2019-03-13T18:14:41.665Z,2.80
2019-03-13T18:17:10.225Z,2.80
2019-03-13T18:19:38.568Z,2.90
2019-03-13T18:22:06.913Z,2.90
2019-03-13T18:24:35.448Z,2.90
2019-03-13T18:27:03.844Z,2.90
2019-03-13T18:29:32.220Z,3.00
2019-03-13T18:32:01.028Z,3.00
2019-03-13T18:34:29.481Z,3.00
2019-03-13T18:36:57.950Z,3.00
2019-03-13T18:39:26.322Z,3.10
2019-03-13T18:41:54.644Z,3.10
2019-03-13T18:44:23.015Z,3.20
2019-03-13T18:46:51.419Z,3.20
2019-03-13T18:49:19.926Z,3.20
2019-03-13T18:51:48.317Z,3.20
2019-03-13T18:54:16.685Z,3.30
2019-03-13T18:56:45.015Z,3.20
2019-03-13T18:59:13.352Z,3.20
2019-03-13T19:01:41.704Z,3.20
2019-03-13T19:04:10.029Z,3.30
2019-03-13T19:06:38.419Z,3.40
2019-03-13T19:09:06.800Z,3.40
2019-03-13T19:11:35.212Z,3.40
2019-03-13T19:14:03.902Z,3.40
2019-03-13T19:16:32.235Z,3.40
2019-03-13T19:19:01.034Z,3.40
2019-03-13T19:21:31.393Z,3.40
2019-03-13T19:24:02.435Z,3.40
2019-03-13T19:26:28.550Z,3.40
2019-03-13T19:28:56.918Z,3.40
2019-03-13T19:31:25.318Z,3.40
2019-03-13T19:33:53.939Z,3.40
2019-03-13T19:36:22.321Z,3.50
2019-03-13T19:38:50.725Z,3.50
2019-03-13T19:41:19.129Z,3.60
2019-03-13T19:43:47.480Z,3.60
2019-03-13T19:46:15.843Z,3.60
2019-03-13T19:48:44.587Z,3.60
2019-03-13T19:51:12.896Z,3.70
2019-03-13T19:53:42.034Z,3.60
2019-03-13T19:56:09.613Z,3.70
2019-03-13T19:58:38.257Z,3.70
2019-03-13T20:01:06.760Z,3.70
2019-03-13T20:03:35.150Z,3.70
2019-03-13T20:06:03.585Z,3.70
2019-03-13T20:08:32.165Z,3.70
2019-03-13T20:11:00.590Z,3.70
2019-03-13T20:13:29.091Z,3.70
2019-03-13T20:15:57.452Z,3.70
2019-03-13T20:18:25.896Z,3.70
2019-03-13T20:20:54.452Z,3.70
2019-03-13T20:23:22.772Z,3.70
2019-03-13T20:25:51.239Z,3.70
2019-03-13T20:28:19.731Z,3.80
2019-03-13T20:30:48.587Z,3.70
2019-03-13T20:33:16.994Z,3.70
2019-03-13T20:35:45.774Z,3.70
2019-03-13T20:38:14.263Z,3.80
2019-03-13T20:40:42.700Z,3.80
2019-03-13T20:43:11.016Z,3.80
2019-03-13T20:45:39.615Z,3.80
2019-03-13T20:48:07.942Z,3.90
2019-03-13T20:50:37.820Z,3.90
2019-03-13T20:53:04.707Z,3.90
2019-03-13T20:55:33.011Z,3.90
2019-03-13T20:58:01.502Z,3.90
2019-03-13T21:00:30.350Z,3.90
2019-03-13T21:02:58.755Z,4.00
2019-03-13T21:05:27.338Z,4.00
2019-03-13T21:07:55.905Z,3.90
2019-03-13T21:10:24.281Z,3.90
2019-03-13T21:12:52.969Z,3.90
2019-03-13T21:15:21.567Z,3.90
2019-03-13T21:17:50.264Z,3.90
2019-03-13T21:20:18.720Z,3.90
2019-03-13T21:22:47.230Z,3.90
2019-03-13T21:25:15.943Z,3.80
2019-03-13T21:27:47.584Z,3.80
2019-03-13T21:30:16.357Z,3.80
2019-03-13T21:32:44.692Z,3.80
2019-03-13T21:35:13.057Z,3.80
2019-03-13T21:37:41.815Z,3.80
2019-03-13T21:40:10.805Z,3.80
2019-03-13T21:42:39.204Z,3.80
2019-03-13T21:45:21.222Z,3.70
2019-03-13T21:47:36.557Z,3.70
2019-03-13T21:50:05.532Z,3.80
2019-03-13T21:52:33.924Z,3.80
2019-03-13T21:55:02.424Z,3.80
2019-03-13T21:57:30.771Z,3.80
2019-03-13T21:59:59.125Z,3.90
2019-03-13T22:02:32.925Z,3.80
2019-03-13T22:04:55.919Z,3.80
2019-03-13T22:07:24.428Z,3.80
2019-03-13T22:09:52.713Z,3.90
2019-03-13T22:12:21.089Z,3.90
2019-03-13T22:14:49.581Z,3.90
2019-03-13T22:17:17.906Z,3.90
2019-03-13T22:19:46.241Z,3.80
2019-03-13T22:22:14.651Z,3.80
2019-03-13T22:24:43.062Z,3.90
2019-03-13T22:27:14.522Z,3.90
2019-03-13T22:29:40.241Z,3.90
2019-03-13T22:32:08.616Z,3.90
2019-03-13T22:34:36.999Z,3.80
2019-03-13T22:37:05.392Z,3.80
2019-03-13T22:39:33.877Z,3.80
2019-03-13T22:42:02.242Z,3.80
2019-03-13T22:44:30.613Z,3.70
2019-03-13T22:46:58.926Z,3.70
2019-03-13T22:49:27.283Z,3.60
2019-03-13T22:51:55.609Z,3.60
2019-03-13T22:54:24.228Z,3.50
2019-03-13T22:56:52.587Z,3.50
2019-03-13T22:59:20.977Z,3.50
2019-03-13T23:01:49.311Z,3.70
2019-03-13T23:04:17.662Z,3.70
2019-03-13T23:06:46.070Z,3.70
2019-03-13T23:09:14.510Z,3.70
2019-03-13T23:11:42.950Z,3.80
2019-03-13T23:14:11.439Z,3.70
2019-03-13T23:16:39.900Z,3.70
2019-03-13T23:19:08.369Z,3.70
2019-03-13T23:21:36.695Z,3.70
2019-03-13T23:24:05.014Z,3.80
2019-03-13T23:26:33.357Z,3.70
2019-03-13T23:29:01.661Z,3.70
2019-03-13T23:31:29.997Z,3.70
2019-03-13T23:33:58.377Z,3.70
2019-03-13T23:36:26.902Z,3.70
2019-03-13T23:38:55.197Z,3.80
2019-03-13T23:41:23.891Z,3.80
2019-03-13T23:43:52.243Z,3.80
2019-03-13T23:46:20.559Z,3.80
2019-03-13T23:48:48.912Z,3.70
2019-03-13T23:51:17.192Z,3.70
2019-03-13T23:53:45.575Z,3.70
2019-03-13T23:56:13.936Z,3.80
2019-03-13T23:58:42.342Z,3.80
